createdAt,value
2022-10-23T00:00:37.468Z,100631.00
2022-10-23T00:03:04.785Z,100638.00
2022-10-23T00:05:31.594Z,100639.00
2022-10-23T00:07:59.737Z,100648.00
2022-10-23T00:10:27.957Z,100638.00
2022-10-23T00:12:54.929Z,100639.00
2022-10-23T00:15:22.440Z,100651.00
2022-10-23T00:17:49.404Z,100654.00
2022-10-23T00:20:17.484Z,100650.00
2022-10-23T00:22:44.015Z,100654.00
2022-10-23T00:25:11.302Z,100653.00
2022-10-23T00:27:37.884Z,100655.00
2022-10-23T00:30:05.805Z,100659.00
2022-10-23T00:35:04.085Z,100664.00
2022-10-23T00:37:30.564Z,100664.00
2022-10-23T00:39:57.256Z,100678.00
2022-10-23T00:42:24.079Z,100665.00
2022-10-23T00:44:50.590Z,100669.00
2022-10-23T00:47:17.634Z,100676.00
2022-10-23T00:49:44.143Z,100672.00
2022-10-23T00:52:12.313Z,100672.00
2022-10-23T00:54:42.830Z,100677.00
2022-10-23T00:57:13.170Z,100678.00
2022-10-23T00:59:40.039Z,100665.00
2022-10-23T01:02:06.985Z,100666.00
2022-10-23T01:04:34.479Z,100665.00
2022-10-23T01:07:34.270Z,100673.00
2022-10-23T01:10:20.109Z,100672.00
2022-10-23T01:12:52.027Z,100670.00
2022-10-23T01:15:22.798Z,100669.00
2022-10-23T01:18:02.449Z,100671.00
2022-10-23T01:20:52.747Z,100672.00
2022-10-23T01:23:41.236Z,100666.00
2022-10-23T01:26:25.679Z,100670.00
2022-10-23T01:29:07.389Z,100667.00
2022-10-23T01:31:39.285Z,100671.00
2022-10-23T01:34:10.769Z,100669.00
2022-10-23T01:36:42.359Z,100673.00
2022-10-23T01:39:13.551Z,100674.00
2022-10-23T01:41:45.856Z,100674.00
2022-10-23T01:44:20.080Z,100676.00
2022-10-23T01:46:47.446Z,100679.00
2022-10-23T01:49:15.083Z,100678.00
2022-10-23T01:51:45.902Z,100684.00
2022-10-23T01:54:14.863Z,100675.00
2022-10-23T01:56:44.977Z,100679.00
2022-10-23T01:59:16.423Z,100675.00
2022-10-23T02:01:45.958Z,100683.00
2022-10-23T02:04:15.218Z,100677.00
2022-10-23T02:06:41.911Z,100673.00
2022-10-23T02:09:08.463Z,100671.00
2022-10-23T02:11:48.720Z,100677.00
2022-10-23T02:14:28.228Z,100668.00
2022-10-23T02:17:07.286Z,100672.00
2022-10-23T02:19:45.633Z,100663.00
2022-10-23T02:22:22.592Z,100669.00
2022-10-23T02:25:11.859Z,100670.00
2022-10-23T02:27:48.164Z,100673.00
2022-10-23T02:30:17.753Z,100671.00
2022-10-23T02:32:52.697Z,100670.00
2022-10-23T02:35:23.421Z,100660.00
2022-10-23T02:37:59.225Z,100666.00
2022-10-23T02:40:36.327Z,100662.00
2022-10-23T02:43:08.412Z,100659.00
2022-10-23T02:48:24.068Z,100666.00
2022-10-23T02:51:03.885Z,100666.00
2022-10-23T02:53:38.920Z,100664.00
2022-10-23T02:56:22.168Z,100663.00
2022-10-23T02:58:58.128Z,100659.00
2022-10-23T03:01:35.919Z,100652.00
2022-10-23T03:04:05.459Z,100664.00
2022-10-23T03:06:32.770Z,100663.00
2022-10-23T03:09:03.784Z,100665.00
2022-10-23T03:11:30.226Z,100664.00
2022-10-23T03:13:56.832Z,100658.00
2022-10-23T03:16:23.387Z,100658.00
2022-10-23T03:18:53.248Z,100660.00
2022-10-23T03:21:19.944Z,100655.00
2022-10-23T03:23:49.765Z,100655.00
2022-10-23T03:26:20.744Z,100651.00
2022-10-23T03:28:48.077Z,100654.00
2022-10-23T03:31:15.915Z,100655.00
2022-10-23T03:33:44.534Z,100656.00
2022-10-23T03:36:12.172Z,100662.00
2022-10-23T03:38:39.903Z,100662.00
2022-10-23T03:41:06.401Z,100667.00
2022-10-23T03:43:32.901Z,100666.00
2022-10-23T03:45:59.354Z,100665.00
2022-10-23T03:48:26.178Z,100668.00
2022-10-23T03:50:57.000Z,100672.00
2022-10-23T03:53:23.513Z,100673.00
2022-10-23T03:55:50.025Z,100672.00
2022-10-23T03:58:17.390Z,100668.00
2022-10-23T04:00:44.111Z,100677.00
2022-10-23T04:03:10.647Z,100676.00
2022-10-23T04:05:37.756Z,100673.00
2022-10-23T04:08:04.394Z,100671.00
2022-10-23T04:10:32.812Z,100671.00
2022-10-23T04:12:59.410Z,100677.00
2022-10-23T04:15:27.212Z,100674.00
2022-10-23T04:17:54.485Z,100677.00
2022-10-23T04:20:20.932Z,100680.00
2022-10-23T04:22:47.455Z,100682.00
2022-10-23T04:25:14.122Z,100675.00
2022-10-23T04:27:40.755Z,100684.00
2022-10-23T04:30:08.197Z,100682.00
2022-10-23T04:32:34.783Z,100667.00
2022-10-23T04:35:01.236Z,100664.00
2022-10-23T04:37:30.092Z,100658.00
2022-10-23T04:39:56.736Z,100663.00
2022-10-23T04:42:23.402Z,100667.00
2022-10-23T04:44:49.979Z,100670.00
2022-10-23T04:47:16.490Z,100677.00
2022-10-23T04:49:53.840Z,100663.00
2022-10-23T04:52:34.876Z,100678.00
2022-10-23T04:55:25.418Z,100672.00
2022-10-23T04:58:06.390Z,100667.00
2022-10-23T05:00:33.039Z,100668.00
2022-10-23T05:02:59.565Z,100671.00
2022-10-23T05:05:32.025Z,100675.00
2022-10-23T05:08:17.969Z,100674.00
2022-10-23T05:11:03.667Z,100664.00
2022-10-23T05:13:35.357Z,100663.00
2022-10-23T05:16:01.927Z,100667.00
2022-10-23T05:18:29.954Z,100666.00
2022-10-23T05:21:06.913Z,100667.00
2022-10-23T05:23:34.274Z,100661.00
2022-10-23T05:26:03.319Z,100661.00
2022-10-23T05:28:31.155Z,100660.00
2022-10-23T05:31:00.196Z,100665.00
2022-10-23T05:33:29.937Z,100667.00
2022-10-23T05:35:56.663Z,100659.00
2022-10-23T05:38:23.729Z,100667.00
2022-10-23T05:40:51.645Z,100664.00
2022-10-23T05:43:19.588Z,100671.00
2022-10-23T05:45:49.556Z,100671.00
2022-10-23T05:48:35.342Z,100671.00
2022-10-23T05:51:22.976Z,100678.00
2022-10-23T05:53:55.798Z,100682.00
2022-10-23T05:56:44.054Z,100679.00
2022-10-23T05:59:23.424Z,100681.00
2022-10-23T06:01:50.485Z,100692.00
2022-10-23T06:04:39.531Z,100691.00
2022-10-23T06:07:14.904Z,100681.00
2022-10-23T06:09:44.136Z,100684.00
2022-10-23T06:12:10.640Z,100684.00
2022-10-23T06:14:38.507Z,100673.00
2022-10-23T06:17:05.286Z,100672.00
2022-10-23T06:19:37.432Z,100675.00
2022-10-23T06:22:05.445Z,100680.00
2022-10-23T06:24:45.349Z,100682.00
2022-10-23T06:27:13.572Z,100680.00
2022-10-23T06:29:44.556Z,100682.00
2022-10-23T06:32:11.447Z,100689.00
2022-10-23T06:34:39.538Z,100680.00
2022-10-23T06:37:08.018Z,100683.00
2022-10-23T06:39:47.517Z,100677.00
2022-10-23T06:42:19.909Z,100680.00
2022-10-23T06:45:12.270Z,100678.00
2022-10-23T06:47:52.474Z,100679.00
2022-10-23T06:50:19.105Z,100680.00
2022-10-23T06:52:47.642Z,100681.00
2022-10-23T06:55:17.344Z,100687.00
2022-10-23T06:57:44.520Z,100698.00
2022-10-23T07:00:12.384Z,100691.00
2022-10-23T07:02:45.826Z,100690.00
2022-10-23T07:05:13.901Z,100688.00
2022-10-23T07:07:42.346Z,100693.00
2022-10-23T07:10:10.221Z,100695.00
2022-10-23T07:12:42.364Z,100694.00
2022-10-23T07:15:27.925Z,100695.00
2022-10-23T07:17:54.774Z,100695.00
2022-10-23T07:20:24.853Z,100694.00
2022-10-23T07:22:52.986Z,100686.00
2022-10-23T07:25:26.804Z,100695.00
2022-10-23T07:27:55.736Z,100687.00
2022-10-23T07:30:24.440Z,100684.00
2022-10-23T07:32:54.129Z,100682.00
2022-10-23T07:35:40.797Z,100695.00
2022-10-23T07:38:14.157Z,100693.00
2022-10-23T07:40:45.284Z,100697.00
2022-10-23T07:43:14.913Z,100694.00
2022-10-23T07:45:41.463Z,100689.00
2022-10-23T07:48:29.485Z,100689.00
2022-10-23T07:51:03.921Z,100701.00
2022-10-23T07:53:31.168Z,100680.00
2022-10-23T07:56:15.621Z,100686.00
2022-10-23T07:59:12.830Z,100685.00
2022-10-23T08:01:41.949Z,100683.00
2022-10-23T08:04:09.813Z,100690.00
2022-10-23T08:06:43.436Z,100693.00
2022-10-23T08:09:10.624Z,100676.00
2022-10-23T08:11:40.208Z,100683.00
2022-10-23T08:14:08.403Z,100686.00
2022-10-23T08:16:37.280Z,100687.00
2022-10-23T08:19:05.201Z,100692.00
2022-10-23T08:21:35.507Z,100685.00
2022-10-23T08:24:03.296Z,100686.00
2022-10-23T08:26:30.730Z,100680.00
2022-10-23T08:29:00.335Z,100686.00
2022-10-23T08:31:27.974Z,100684.00
2022-10-23T08:34:21.424Z,100692.00
2022-10-23T08:36:50.020Z,100682.00
2022-10-23T08:39:17.620Z,100689.00
2022-10-23T08:42:02.581Z,100680.00
2022-10-23T08:44:33.106Z,100685.00
2022-10-23T08:47:04.188Z,100681.00
2022-10-23T08:49:52.057Z,100692.00
2022-10-23T08:52:30.228Z,100677.00
2022-10-23T08:55:12.378Z,100679.00
2022-10-23T08:57:45.609Z,100676.00
2022-10-23T09:00:14.660Z,100676.00
2022-10-23T09:02:50.955Z,100673.00
2022-10-23T09:05:27.678Z,100673.00
2022-10-23T09:08:23.441Z,100676.00
2022-10-23T09:11:12.632Z,100680.00
2022-10-23T09:13:58.251Z,100673.00
2022-10-23T09:16:35.273Z,100679.00
2022-10-23T09:19:02.240Z,100678.00
2022-10-23T09:21:29.624Z,100676.00
2022-10-23T09:23:56.571Z,100680.00
2022-10-23T09:26:23.487Z,100677.00
2022-10-23T09:28:57.210Z,100683.00
2022-10-23T09:31:23.830Z,100674.00
2022-10-23T09:33:58.867Z,100668.00
2022-10-23T09:36:28.984Z,100667.00
2022-10-23T09:38:58.837Z,100669.00
2022-10-23T09:41:30.534Z,100669.00
2022-10-23T09:44:09.230Z,100669.00
2022-10-23T09:46:53.691Z,100669.00
2022-10-23T09:49:26.099Z,100667.00
2022-10-23T09:52:34.180Z,100668.00
2022-10-23T09:55:02.968Z,100666.00
2022-10-23T09:57:34.024Z,100665.00
2022-10-23T10:00:15.222Z,100655.00
2022-10-23T10:02:44.259Z,100655.00
2022-10-23T10:05:41.122Z,100656.00
2022-10-23T10:08:48.989Z,100655.00
2022-10-23T10:11:24.638Z,100651.00
2022-10-23T10:14:06.801Z,100651.00
2022-10-23T10:16:43.040Z,100650.00
2022-10-23T10:19:23.091Z,100653.00
2022-10-23T10:22:09.548Z,100641.00
2022-10-23T10:24:50.583Z,100642.00
2022-10-23T10:27:32.386Z,100641.00
2022-10-23T10:30:13.284Z,100644.00
2022-10-23T10:32:59.075Z,100630.00
2022-10-23T10:35:38.293Z,100634.00
2022-10-23T10:38:11.268Z,100634.00
2022-10-23T10:41:15.344Z,100623.00
2022-10-23T10:44:11.257Z,100623.00
2022-10-23T10:46:51.069Z,100629.00
2022-10-23T10:49:31.225Z,100615.00
2022-10-23T10:52:33.126Z,100630.00
2022-10-23T10:55:18.226Z,100623.00
2022-10-23T10:57:52.038Z,100627.00
2022-10-23T11:00:20.859Z,100620.00
2022-10-23T11:02:50.201Z,100622.00
2022-10-23T11:05:34.839Z,100612.00
2022-10-23T11:08:10.921Z,100608.00
2022-10-23T11:10:41.552Z,100599.00
2022-10-23T11:13:29.166Z,100596.00
2022-10-23T11:15:59.164Z,100599.00
2022-10-23T11:18:28.529Z,100590.00
2022-10-23T11:21:28.319Z,100588.00
2022-10-23T11:24:13.927Z,100576.00
2022-10-23T11:27:09.656Z,100576.00
2022-10-23T11:29:44.171Z,100569.00
2022-10-23T11:32:25.892Z,100559.00
2022-10-23T11:34:55.387Z,100562.00
2022-10-23T11:37:22.541Z,100559.00
2022-10-23T11:39:57.926Z,100561.00
2022-10-23T11:42:31.886Z,100553.00
2022-10-23T11:44:58.452Z,100546.00
2022-10-23T11:47:38.990Z,100541.00
2022-10-23T11:50:09.491Z,100539.00
2022-10-23T11:52:45.614Z,100537.00
2022-10-23T11:55:20.732Z,100544.00
2022-10-23T11:58:23.786Z,100538.00
2022-10-23T12:01:01.600Z,100531.00
2022-10-23T12:03:40.842Z,100525.00
2022-10-23T12:06:07.914Z,100514.00
2022-10-23T12:08:38.507Z,100518.00
2022-10-23T12:11:05.302Z,100514.00
2022-10-23T12:13:38.012Z,100522.00
2022-10-23T12:16:07.531Z,100526.00
2022-10-23T12:18:45.357Z,100511.00
2022-10-23T12:21:28.497Z,100508.00
2022-10-23T12:24:23.484Z,100506.00
2022-10-23T12:27:15.712Z,100500.00
2022-10-23T12:29:51.624Z,100504.00
2022-10-23T12:32:33.274Z,100500.00
2022-10-23T12:35:35.015Z,100490.00
2022-10-23T12:38:16.562Z,100487.00
2022-10-23T12:40:51.963Z,100487.00
2022-10-23T12:43:22.713Z,100486.00
2022-10-23T12:45:49.298Z,100484.00
2022-10-23T12:48:25.062Z,100480.00
2022-10-23T12:50:55.967Z,100486.00
2022-10-23T12:53:23.382Z,100481.00
2022-10-23T12:58:33.380Z,100469.00
2022-10-23T13:01:05.738Z,100457.00
2022-10-23T13:03:33.877Z,100461.00
2022-10-23T13:06:04.402Z,100457.00
2022-10-23T13:08:39.222Z,100458.00
2022-10-23T13:11:24.833Z,100454.00
2022-10-23T13:13:53.255Z,100450.00
2022-10-23T13:16:22.703Z,100447.00
2022-10-23T13:18:49.439Z,100444.00
2022-10-23T13:21:21.823Z,100438.00
2022-10-23T13:23:49.217Z,100431.00
2022-10-23T13:26:30.787Z,100420.00
2022-10-23T13:28:57.798Z,100425.00
2022-10-23T13:31:33.305Z,100424.00
2022-10-23T13:33:59.692Z,100430.00
2022-10-23T13:36:28.641Z,100431.00
2022-10-23T13:39:10.082Z,100428.00
2022-10-23T13:41:40.974Z,100424.00
2022-10-23T13:44:10.358Z,100420.00
2022-10-23T13:46:36.945Z,100414.00
2022-10-23T13:49:03.568Z,100403.00
2022-10-23T13:51:32.439Z,100414.00
2022-10-23T13:53:59.009Z,100410.00
2022-10-23T13:56:27.323Z,100413.00
2022-10-23T13:58:54.220Z,100411.00
2022-10-23T14:01:26.951Z,100412.00
2022-10-23T14:03:54.706Z,100402.00
2022-10-23T14:06:21.306Z,100402.00
2022-10-23T14:08:48.005Z,100392.00
2022-10-23T14:11:15.994Z,100403.00
2022-10-23T14:13:42.614Z,100388.00
2022-10-23T14:16:10.188Z,100395.00
2022-10-23T14:18:36.671Z,100400.00
2022-10-23T14:21:05.115Z,100392.00
2022-10-23T14:23:31.840Z,100378.00
2022-10-23T14:26:02.755Z,100392.00
2022-10-23T14:28:29.207Z,100386.00
2022-10-23T14:30:55.692Z,100396.00
2022-10-23T14:33:22.198Z,100381.00
2022-10-23T14:35:51.800Z,100389.00
2022-10-23T14:38:18.338Z,100386.00
2022-10-23T14:40:44.897Z,100380.00
2022-10-23T14:43:11.372Z,100359.00
2022-10-23T14:45:38.008Z,100381.00
2022-10-23T14:48:04.717Z,100378.00
2022-10-23T14:50:32.175Z,100377.00
2022-10-23T14:52:58.614Z,100370.00
2022-10-23T14:55:25.286Z,100365.00
2022-10-23T14:57:55.561Z,100373.00
2022-10-23T15:00:23.315Z,100363.00
2022-10-23T15:02:49.776Z,100362.00
2022-10-23T15:05:16.342Z,100360.00
2022-10-23T15:07:42.844Z,100356.00
2022-10-23T15:10:09.899Z,100352.00
2022-10-23T15:12:37.471Z,100355.00
2022-10-23T15:15:05.475Z,100357.00
2022-10-23T15:17:33.946Z,100344.00
2022-10-23T15:20:00.911Z,100345.00
2022-10-23T15:22:27.664Z,100346.00
2022-10-23T15:24:55.047Z,100338.00
2022-10-23T15:27:21.556Z,100340.00
2022-10-23T15:29:48.073Z,100335.00
2022-10-23T15:32:16.063Z,100335.00
2022-10-23T15:34:42.801Z,100336.00
2022-10-23T15:37:10.043Z,100331.00
2022-10-23T15:39:36.589Z,100322.00
2022-10-23T15:42:05.274Z,100313.00
2022-10-23T15:44:33.575Z,100309.00
2022-10-23T15:47:00.301Z,100308.00
2022-10-23T15:49:29.467Z,100309.00
2022-10-23T15:51:56.294Z,100317.00
2022-10-23T15:54:23.073Z,100305.00
2022-10-23T15:56:51.606Z,100300.00
2022-10-23T15:59:20.149Z,100300.00
2022-10-23T16:01:46.889Z,100295.00
2022-10-23T16:04:13.579Z,100287.00
2022-10-23T16:06:40.285Z,100287.00
2022-10-23T16:09:06.739Z,100295.00
2022-10-23T16:11:35.457Z,100297.00
2022-10-23T16:14:03.554Z,100302.00
2022-10-23T16:16:30.922Z,100308.00
2022-10-23T16:19:01.194Z,100302.00
2022-10-23T16:21:30.312Z,100288.00
2022-10-23T16:23:58.963Z,100288.00
2022-10-23T16:26:26.135Z,100291.00
2022-10-23T16:28:57.104Z,100285.00
2022-10-23T16:31:24.578Z,100292.00
2022-10-23T16:33:51.733Z,100292.00
2022-10-23T16:36:18.965Z,100297.00
2022-10-23T16:39:15.903Z,100294.00
2022-10-23T16:42:01.000Z,100276.00
2022-10-23T16:44:38.743Z,100271.00
2022-10-23T16:47:06.070Z,100268.00
2022-10-23T16:49:32.672Z,100270.00
2022-10-23T16:51:59.196Z,100268.00
2022-10-23T16:54:25.778Z,100255.00
2022-10-23T16:56:52.291Z,100259.00
2022-10-23T16:59:18.763Z,100262.00
2022-10-23T17:01:45.377Z,100257.00
2022-10-23T17:04:12.105Z,100252.00
2022-10-23T17:06:38.770Z,100255.00
2022-10-23T17:09:11.159Z,100248.00
2022-10-23T17:11:44.107Z,100246.00
2022-10-23T17:14:17.342Z,100240.00
2022-10-23T17:16:49.693Z,100244.00
2022-10-23T17:19:44.753Z,100233.00
2022-10-23T17:22:10.602Z,100230.00
2022-10-23T17:24:39.027Z,100233.00
2022-10-23T17:27:06.024Z,100226.00
2022-10-23T17:29:32.622Z,100216.00
2022-10-23T17:31:59.496Z,100209.00
2022-10-23T17:34:26.241Z,100196.00
2022-10-23T17:36:54.519Z,100210.00
2022-10-23T17:39:23.853Z,100202.00
2022-10-23T17:41:50.631Z,100193.00
2022-10-23T17:44:17.615Z,100192.00
2022-10-23T17:46:44.091Z,100190.00
2022-10-23T17:49:16.341Z,100187.00
2022-10-23T17:51:47.302Z,100187.00
2022-10-23T17:54:14.529Z,100190.00
2022-10-23T17:56:41.344Z,100195.00
2022-10-23T17:59:11.386Z,100187.00
2022-10-23T18:01:38.711Z,100187.00
2022-10-23T18:04:09.345Z,100197.00
2022-10-23T18:06:41.485Z,100188.00
2022-10-23T18:09:08.039Z,100183.00
2022-10-23T18:11:37.434Z,100193.00
2022-10-23T18:14:05.014Z,100185.00
2022-10-23T18:16:31.756Z,100191.00
2022-10-23T18:19:02.011Z,100192.00
2022-10-23T18:21:28.850Z,100176.00
2022-10-23T18:23:55.714Z,100160.00
2022-10-23T18:26:24.962Z,100160.00
2022-10-23T18:28:53.554Z,100157.00
2022-10-23T18:31:20.678Z,100161.00
2022-10-23T18:33:47.468Z,100155.00
2022-10-23T18:36:19.678Z,100148.00
2022-10-23T18:38:46.581Z,100145.00
2022-10-23T18:41:13.100Z,100146.00
2022-10-23T18:43:43.677Z,100150.00
2022-10-23T18:46:14.995Z,100148.00
2022-10-23T18:48:43.355Z,100154.00
2022-10-23T18:51:18.403Z,100150.00
2022-10-23T18:53:48.214Z,100142.00
2022-10-23T18:56:15.836Z,100141.00
2022-10-23T18:58:42.297Z,100139.00
2022-10-23T19:01:08.923Z,100134.00
2022-10-23T19:03:35.487Z,100129.00
2022-10-23T19:06:02.045Z,100139.00
2022-10-23T19:08:28.903Z,100137.00
2022-10-23T19:10:57.344Z,100128.00
2022-10-23T19:13:23.814Z,100129.00
2022-10-23T19:15:50.287Z,100125.00
2022-10-23T19:18:16.854Z,100122.00
2022-10-23T19:20:43.473Z,100124.00
2022-10-23T19:23:12.795Z,100122.00
2022-10-23T19:25:45.188Z,100132.00
2022-10-23T19:28:11.622Z,100125.00
2022-10-23T19:30:38.065Z,100136.00
2022-10-23T19:33:04.752Z,100140.00
2022-10-23T19:35:31.259Z,100128.00
2022-10-23T19:37:57.718Z,100121.00
2022-10-23T19:40:24.772Z,100110.00
2022-10-23T19:42:51.236Z,100096.00
2022-10-23T19:45:17.913Z,100101.00
2022-10-23T19:47:46.143Z,100096.00
2022-10-23T19:50:12.903Z,100085.00
2022-10-23T19:52:39.714Z,100081.00
2022-10-23T19:55:07.698Z,100081.00
2022-10-23T19:57:34.761Z,100065.00
2022-10-23T20:00:02.060Z,100075.00
2022-10-23T20:05:08.645Z,100090.00
2022-10-23T20:07:37.019Z,100099.00
2022-10-23T20:10:07.141Z,100095.00
2022-10-23T20:12:34.726Z,100101.00
2022-10-23T20:15:01.209Z,100106.00
2022-10-23T20:17:27.705Z,100102.00
2022-10-23T20:19:54.276Z,100087.00
2022-10-23T20:22:20.831Z,100098.00
2022-10-23T20:24:47.360Z,100084.00
2022-10-23T20:27:14.628Z,100096.00
2022-10-23T20:29:42.205Z,100093.00
2022-10-23T20:32:08.870Z,100101.00
2022-10-23T20:34:35.450Z,100091.00
2022-10-23T20:37:01.996Z,100093.00
2022-10-23T20:39:29.739Z,100091.00
2022-10-23T20:41:56.639Z,100077.00
2022-10-23T20:44:23.885Z,100085.00
2022-10-23T20:46:50.898Z,100080.00
2022-10-23T20:49:17.774Z,100074.00
2022-10-23T20:51:44.269Z,100079.00
2022-10-23T20:54:10.775Z,100069.00
2022-10-23T20:56:38.822Z,100080.00
2022-10-23T20:59:12.748Z,100083.00
2022-10-23T21:01:45.483Z,100080.00
2022-10-23T21:04:13.075Z,100082.00
2022-10-23T21:06:51.950Z,100070.00
2022-10-23T21:09:29.468Z,100066.00
2022-10-23T21:11:56.175Z,100066.00
2022-10-23T21:14:22.614Z,100069.00
2022-10-23T21:16:49.114Z,100065.00
2022-10-23T21:19:16.106Z,100054.00
2022-10-23T21:21:43.458Z,100061.00
2022-10-23T21:24:13.966Z,100045.00
2022-10-23T21:26:40.460Z,100045.00
2022-10-23T21:29:18.891Z,100061.00
2022-10-23T21:31:51.916Z,100065.00
2022-10-23T21:34:18.395Z,100062.00
2022-10-23T21:37:10.839Z,100061.00
2022-10-23T21:39:32.997Z,100061.00
2022-10-23T21:41:59.440Z,100068.00
2022-10-23T21:44:25.961Z,100064.00
2022-10-23T21:46:52.512Z,100074.00
2022-10-23T21:49:18.969Z,100094.00
2022-10-23T21:51:45.567Z,100103.00
2022-10-23T21:54:14.767Z,100105.00
2022-10-23T21:56:45.413Z,100102.00
2022-10-23T21:59:14.296Z,100101.00
2022-10-23T22:01:43.260Z,100103.00
2022-10-23T22:04:14.200Z,100095.00
2022-10-23T22:06:42.063Z,100088.00
2022-10-23T22:09:09.559Z,100094.00
2022-10-23T22:11:36.099Z,100086.00
2022-10-23T22:14:03.223Z,100081.00
2022-10-23T22:16:29.767Z,100082.00
2022-10-23T22:18:56.375Z,100067.00
2022-10-23T22:21:24.850Z,100080.00
2022-10-23T22:23:53.775Z,100082.00
2022-10-23T22:26:24.415Z,100086.00
2022-10-23T22:28:57.437Z,100093.00
2022-10-23T22:31:26.077Z,100090.00
2022-10-23T22:33:53.492Z,100100.00
2022-10-23T22:36:20.176Z,100100.00
2022-10-23T22:38:46.710Z,100098.00
2022-10-23T22:41:13.349Z,100097.00
2022-10-23T22:43:40.066Z,100099.00
2022-10-23T22:46:14.814Z,100105.00
2022-10-23T22:48:41.551Z,100104.00
2022-10-23T22:51:09.275Z,100105.00
2022-10-23T22:53:35.972Z,100107.00
2022-10-23T22:56:06.140Z,100102.00
2022-10-23T22:58:32.616Z,100095.00
2022-10-23T23:01:30.575Z,100108.00
2022-10-23T23:04:04.415Z,100108.00
2022-10-23T23:06:47.242Z,100111.00
2022-10-23T23:09:17.842Z,100101.00
2022-10-23T23:11:51.438Z,100107.00
2022-10-23T23:14:22.025Z,100103.00
2022-10-23T23:16:50.457Z,100090.00
2022-10-23T23:19:16.931Z,100085.00
2022-10-23T23:21:43.388Z,100080.00
2022-10-23T23:24:11.104Z,100076.00
2022-10-23T23:26:37.564Z,100077.00
2022-10-23T23:29:04.010Z,100087.00
2022-10-23T23:31:30.450Z,100077.00
2022-10-23T23:33:56.909Z,100078.00
2022-10-23T23:36:26.138Z,100063.00
2022-10-23T23:38:53.325Z,100080.00
2022-10-23T23:41:20.481Z,100065.00
2022-10-23T23:43:47.102Z,100056.00
2022-10-23T23:46:16.827Z,100048.00
2022-10-23T23:48:47.671Z,100052.00
2022-10-23T23:51:32.292Z,100038.00
2022-10-23T23:53:58.716Z,100042.00
2022-10-23T23:56:25.349Z,100031.00
2022-10-23T23:58:51.783Z,100024.00
